Paradise Valley, Nevada Weather observations

Data are for 10 minute period ending at time listed.
 Day   Time   Solar   Ave.   Ave.  Ave.  Vector  Max.   Baro.   Total    
  of    of     Rad.   Air    Rel.  Wind   Wind   Wind  Press.  Precip.   
Year   Day            Temp.  Hum.  Speed  Dir.   Gust                    
2017   (PST)  Kw/m2    F      %     mph   deg.    mph    mb.     in.     
-------------------------------------------------------------------------
 291    4:00   0.00   31.3    37    3.1   281     3.8   869.4    0.00 
 291    4:10   0.00   30.9    40    1.2   159     2.9   869.5    0.00 
 291    4:20   0.00   33.5    34    0.9   132     2.4   869.6    0.00 
 291    4:30   0.00   35.0    32    0.0     0     0.0   869.6    0.00 
 291    4:40   0.00   34.3    34    0.0     0     0.0   869.8    0.00 
 291    4:50   0.00   30.6    40    0.0     0     0.0   869.9    0.00 
 291    5:00   0.00   28.9    46    0.0     0     0.0   869.9    0.00 
 291    5:10   0.00   28.6    51    0.0     0     0.0   870.0    0.00 
 291    5:20   0.00   28.7    47    1.6   261     6.2   869.9    0.00 
 291    5:30   0.00   27.2    49    1.2   211     3.4   870.0    0.00 
 291    5:40   0.00   28.5    52    0.2   156     1.7   870.0    0.00 
 291    5:50   0.00   28.3    52    1.5   159     3.0   870.0    0.00 
 291    6:00   0.00   25.7    51    2.6   229     4.5   870.1    0.00 
 291    6:10   0.01   24.1    51    3.5   245     4.5   870.1    0.00 
 291    6:20   0.01   24.4    50    3.9   255     4.8   870.1    0.00 
 291    6:30   0.03   25.3    49    2.5   260     3.4   870.1    0.00 
 291    6:40   0.06   26.8    46    1.9   260     3.2   870.1    0.00 
 291    6:50   0.09   29.9    44    1.8   260     3.0   870.2    0.00 
 291    7:00   0.12   32.9    46    0.2   260     1.4   870.2    0.00 
 291    7:10   0.14   34.9    41    0.2   260     1.0   870.3    0.00 
 291    7:20   0.18   38.1    30    0.2   260     0.9   870.5    0.00 
 291    7:30   0.21   42.0    28    0.0   260     0.4   870.5    0.00 
 291    7:40   0.24   42.1    26    1.8    17     3.4   870.6    0.00 
 291    7:50   0.28   40.2    29    2.0    26     3.6   870.7    0.00 
 291    8:00   0.31   42.2    28    2.0     3     3.7   870.7    0.00 
 291    8:10   0.34   43.3    26    3.0    30     4.5   870.7    0.00 
 291    8:20   0.37   42.9    28    2.7    16     4.1   870.6    0.00 
 291    8:30   0.40   44.5    28    2.1     9     3.2   870.5    0.00 
 291    8:40   0.43   45.9    26    2.8    36     4.3   870.4    0.00 
 291    8:50   0.46   46.3    26    2.8    38     4.3   870.3    0.00 
 291    9:00   0.49   47.7    24    1.9    29     4.2   870.2    0.00 
 291    9:10   0.52   49.9    22    1.8    19     3.7   870.1    0.00 
 291    9:20   0.54   52.2    20    1.5     2     3.1   870.0    0.00 
 291    9:30   0.57   55.1    18    0.7   269     2.5   869.8    0.00 
 291    9:40   0.59   57.1    16    0.7   274     2.6   869.8    0.00 
 291    9:50   0.61   59.5    15    0.4   228     2.3   869.7    0.00 
 291   10:00   0.63   61.8    13    0.6   199     2.0   869.7    0.00 
 291   10:10   0.65   61.9    14    1.4   173     3.4   869.6    0.00 
 291   10:20   0.66   61.1    14    1.7   102     4.7   869.7    0.00 
 291   10:30   0.68   61.5    15    1.6   114     4.4   869.7    0.00 
 291   10:40   0.69   62.3    14    2.8   156     6.4   869.6    0.00 
 291   10:50   0.70   61.5    14    3.9   134     6.2   869.6    0.00 
 291   11:00   0.71   62.3    14    4.1   156     6.6   869.5    0.00 
 291   11:10   0.72   63.6    14    3.2   169     6.1   869.4    0.00 
 291   11:20   0.72   65.3    13    1.8   135     4.2   869.3    0.00 
 291   11:30   0.73   65.6    13    1.5   108     5.5   869.2    0.00 
 291   11:40   0.73   66.2    12    2.0   143     4.4   869.1    0.00 
 291   11:50   0.73   67.5    12    1.4   182     3.6   868.9    0.00 
 291   12:00   0.73   68.8    11    1.5   171     3.7   868.8    0.00 
 291   12:10   0.72   69.7    11    1.2   199     3.2   868.6    0.00 
 291   12:20   0.71   70.0    10    2.0   155     5.5   868.4    0.00 
 291   12:30   0.71   68.8    14    3.4   149     5.8   868.2    0.00 
 291   12:40   0.70   69.0    20    3.8   173     6.9   868.0    0.00 
 291   12:50   0.69   69.5    16    4.4   180     6.7   867.8    0.00 
 291   13:00   0.68   70.6    17    4.6   178     7.2   867.6    0.00 
 291   13:10   0.66   71.7    14    3.8   189     6.5   867.4    0.00 
 291   13:20   0.64   72.0    14    3.9   159     8.3   867.3    0.00 
 291   13:30   0.62   72.4    13    3.5   175     6.9   867.2    0.00 
 291   13:40   0.60   72.1    14    5.1   168     8.8   867.0    0.00 
 291   13:50   0.58   72.7    13    4.8   146     7.6   866.9    0.00 
 291   14:00   0.56   72.8    12    3.8   136     9.1   866.7    0.00 
 291   14:10   0.54   72.7    14    5.7   155    11.1   866.6    0.00 
 291   14:20   0.51   74.2    12    3.6   182    10.8   866.5    0.00 
 291   14:30   0.49   73.1    14    8.3   193    11.8   866.5    0.00 
 291   14:40   0.46   73.2    13    5.7   201    10.3   866.4    0.00 
 291   14:50   0.43   73.7    14    5.1   222    10.1   866.4    0.00 
 291   15:00   0.40   73.0    13    7.0   216    11.3   866.3    0.00 
 291   15:10   0.37   73.6    12    4.2   220     6.7   866.2    0.00 
 291   15:20   0.34   73.9    13    4.1   212     6.6   866.1    0.00 
 291   15:30   0.31   73.0    13    7.0   226    12.5   866.0    0.00 
 291   15:40   0.27   71.6    12    8.8   240    15.4   866.0    0.00 
 291   15:50   0.24   71.2    12    8.2   242    11.7   865.9    0.00 
 291   16:00   0.20   70.2    14    7.2   237     9.9   865.8    0.00 
 291   16:10   0.17   69.5    14    6.8   245     9.9   865.6    0.00 
 291   16:20   0.14   68.1    14    6.3   240     8.8   865.6    0.00 
 291   16:30   0.11   66.8    15    5.5   243     7.2   865.5    0.00 
 291   16:40   0.08   64.4    16    4.7   237     5.2   865.4    0.00 
 291   16:50   0.02   63.3    14    4.6   234     5.0   865.3    0.00 
 291   17:00   0.01   59.8    18    5.1   234     6.1   865.1    0.00 
 291   17:10   0.01   55.3    22    5.4   239     6.0   864.9    0.00 
 291   17:20   0.00   54.2    20    5.9   243     6.5   864.8    0.00 
 291   17:30   0.00   53.7    21    6.0   248     7.2   864.7    0.00 
 291   17:40   0.00   53.2    22    6.2   243     7.4   864.6    0.00 
 291   17:50   0.00   53.3    21    6.0   237     6.9   864.6    0.00 
 291   18:00   0.00   52.4    23    4.9   242     6.4   864.5    0.00 
 291   18:10   0.00   51.9    24    3.6   189     7.2   864.6    0.00 
 291   18:20   0.00   51.5    27    4.3   198     6.7   864.6    0.00 
 291   18:30   0.00   52.2    25    4.8   206     6.3   864.6    0.00 
 291   18:40   0.00   51.2    28    5.5   205     7.1   864.7    0.00 
 291   18:50   0.00   51.5    28    6.6   213     7.8   864.7    0.00 
 291   19:00   0.00   51.8    29    6.5   210     7.6   864.7    0.00 
 291   19:10   0.00   51.4    27    5.9   222     7.7   864.6    0.00 
 291   19:20   0.00   53.6    25    6.3   215     7.1   864.5    0.00 
 291   19:30   0.00   50.2    30    5.4   183     7.2   864.5    0.00 
 291   19:40   0.00   46.7    34    5.3   172     6.4   864.5    0.00 
 291   19:50   0.00   43.8    40    4.4   180     6.1   864.5    0.00 
 291   20:00   0.00   42.7    41    5.6   184     6.9   864.5    0.00 
 291   20:10   0.00   44.2    37    5.6   187     6.6   864.5    0.00 
 291   20:20   0.00   43.6    38    6.1   191     6.9   864.4    0.00 
 291   20:30   0.00   43.6    38    6.0   198     7.2   864.3    0.00 
 291   20:40   0.00   44.4    35    5.7   203     6.6   864.3    0.00 
 291   20:50   0.00   43.2    40    3.7   219     5.3   864.2    0.00 
 291   21:00   0.00   40.9    35    2.8   255     4.0   864.2    0.00 
 291   21:10   0.00   41.7    25    2.3   296     3.7   864.2    0.00 
 291   21:20   0.00   39.9    27    1.0    14     2.3   864.2    0.00 
 291   21:30   0.00   40.0    34    0.8   309     1.7   864.3    0.00 
 291   21:40   0.00   40.1    30    1.6   301     2.3   864.4    0.00 
 291   21:50   0.00   39.6    32    2.1   282     3.0   864.4    0.00 
 291   22:00   0.00   39.8    31    1.4   293     2.1   864.4    0.00 
 291   22:10   0.00   38.2    31    0.9   302     2.2   864.4    0.00 
 291   22:20   0.00   35.8    36    1.6   276     3.1   864.2    0.00 
 291   22:30   0.00   35.8    35    0.5   307     1.8   864.1    0.00 
 291   22:40   0.00   34.8    34    0.9   302     1.9   864.1    0.00 
 291   22:50   0.00   34.9    32    0.5   313     1.7   864.0    0.00 
 291   23:00   0.00   35.3    33    1.6   312     2.3   864.0    0.00 
 291   23:10   0.00   35.6    33    1.9   291     2.4   864.0    0.00 
 291   23:20   0.00   35.5    35    2.0   289     3.1   864.0    0.00 
 291   23:30   0.00   36.4    32    2.0   291     4.3   863.9    0.00 
 291   23:40   0.00   35.9    35    3.1   260     4.2   863.9    0.00 
 291   23:50   0.00   35.9    33    1.8   265     2.9   863.8    0.00 
 292    0:00   0.00   36.5    31    1.5   283     2.9   863.7    0.00 
 292    0:10   0.00   35.8    32    1.0   299     3.0   863.7    0.00 
 292    0:20   0.00   36.7    32    0.0   300     0.7   863.7    0.00 
 292    0:30   0.00   37.5    30    0.0   304     0.6   863.6    0.00 
 292    0:40   0.00   36.9    30    0.1   303     0.9   863.7    0.00 
 292    0:50   0.00   33.5    41    1.9   277     5.3   863.6    0.00 
 292    1:00   0.00   31.2    46    3.5   260     5.2   863.6    0.00 
 292    1:10   0.00   32.3    43    2.6   257     4.2   863.6    0.00 
 292    1:20   0.00   32.2    39    2.5   270     5.7   863.6    0.00 
 292    1:30   0.00   33.1    40    2.1   259     3.3   863.5    0.00 
 292    1:40   0.00   32.1    44    2.4   260     3.7   863.5    0.00 
 292    1:50   0.00   32.2    44    3.2   257     4.1   863.4    0.00 
 292    2:00   0.00   31.8    45    2.7   262     4.9   863.3    0.00 
 292    2:10   0.00   30.6    48    3.1   254     4.3   863.3    0.00 
 292    2:20   0.00   30.8    46    2.6   250     3.1   863.1    0.00 
 292    2:30   0.00   30.9    53    2.0   250     2.8   863.1    0.00 
 292    2:40   0.00   28.5    50    3.1   271     4.2   863.0    0.00 
 292    2:50   0.00   30.1    45    2.0   269     3.1   863.0    0.00 
 292    3:00   0.00   31.5    47    2.0   260     3.0   863.0    0.00 
 292    3:10   0.00   30.4    48    2.5   258     3.9   863.0    0.00 
 292    3:20   0.00   28.8    47    2.6   272     3.8   863.0    0.00 
 292    3:30   0.00   26.9    49    1.6   289     2.8   863.1    0.00 
 292    3:40   0.00   28.6    43    0.9   312     1.7   863.1    0.00 
 292    3:50   0.00   29.5    43    0.3   310     1.3   863.1    0.00 

Return to Paradise Valley graphs page.


Western Regional Climate Center,wrcc@dri.edu